sensor_id;sensor_type;location;lat;lon;timestamp;P1;durP1;ratioP1;P2;durP2;ratioP2
65377;SDS011;51982;51.042;13.806;2023-02-08T00:01:26;36.85;;;17.70;;
65377;SDS011;51982;51.042;13.806;2023-02-08T00:03:51;33.40;;;15.50;;
65377;SDS011;51982;51.042;13.806;2023-02-08T00:06:16;36.70;;;17.33;;
65377;SDS011;51982;51.042;13.806;2023-02-08T00:08:43;33.30;;;16.38;;
65377;SDS011;51982;51.042;13.806;2023-02-08T00:11:09;34.70;;;16.50;;
65377;SDS011;51982;51.042;13.806;2023-02-08T00:13:34;37.30;;;15.52;;
65377;SDS011;51982;51.042;13.806;2023-02-08T00:16:00;34.20;;;16.13;;
65377;SDS011;51982;51.042;13.806;2023-02-08T00:18:25;29.65;;;15.23;;
65377;SDS011;51982;51.042;13.806;2023-02-08T00:20:51;38.53;;;15.88;;
65377;SDS011;51982;51.042;13.806;2023-02-08T00:23:16;35.08;;;15.80;;
65377;SDS011;51982;51.042;13.806;2023-02-08T00:25:42;30.20;;;14.90;;
65377;SDS011;51982;51.042;13.806;2023-02-08T00:28:10;36.25;;;15.52;;
65377;SDS011;51982;51.042;13.806;2023-02-08T00:30:37;32.65;;;14.32;;
65377;SDS011;51982;51.042;13.806;2023-02-08T00:33:02;30.08;;;14.63;;
65377;SDS011;51982;51.042;13.806;2023-02-08T00:35:28;27.70;;;14.70;;
65377;SDS011;51982;51.042;13.806;2023-02-08T00:37:53;28.65;;;14.73;;
65377;SDS011;51982;51.042;13.806;2023-02-08T00:40:18;32.83;;;14.73;;
65377;SDS011;51982;51.042;13.806;2023-02-08T00:42:44;31.35;;;12.75;;
65377;SDS011;51982;51.042;13.806;2023-02-08T00:45:09;29.77;;;13.80;;
65377;SDS011;51982;51.042;13.806;2023-02-08T00:47:35;27.10;;;12.95;;
65377;SDS011;51982;51.042;13.806;2023-02-08T00:50:00;36.75;;;14.50;;
65377;SDS011;51982;51.042;13.806;2023-02-08T00:52:26;29.13;;;13.90;;
65377;SDS011;51982;51.042;13.806;2023-02-08T00:54:52;28.70;;;12.55;;
65377;SDS011;51982;51.042;13.806;2023-02-08T00:57:17;28.85;;;12.48;;
65377;SDS011;51982;51.042;13.806;2023-02-08T00:59:42;26.90;;;13.82;;
65377;SDS011;51982;51.042;13.806;2023-02-08T01:02:08;32.15;;;14.00;;
65377;SDS011;51982;51.042;13.806;2023-02-08T01:04:34;30.10;;;12.73;;
65377;SDS011;51982;51.042;13.806;2023-02-08T01:06:59;25.40;;;12.18;;
65377;SDS011;51982;51.042;13.806;2023-02-08T01:09:24;28.38;;;13.13;;
65377;SDS011;51982;51.042;13.806;2023-02-08T01:11:50;29.83;;;13.63;;
65377;SDS011;51982;51.042;13.806;2023-02-08T01:14:15;30.63;;;13.55;;
65377;SDS011;51982;51.042;13.806;2023-02-08T01:16:41;28.30;;;13.13;;
65377;SDS011;51982;51.042;13.806;2023-02-08T01:19:06;34.20;;;14.40;;
65377;SDS011;51982;51.042;13.806;2023-02-08T01:21:32;31.08;;;15.10;;
65377;SDS011;51982;51.042;13.806;2023-02-08T01:23:59;25.35;;;13.10;;
65377;SDS011;51982;51.042;13.806;2023-02-08T01:26:25;31.27;;;13.65;;
65377;SDS011;51982;51.042;13.806;2023-02-08T01:28:51;30.27;;;13.05;;
65377;SDS011;51982;51.042;13.806;2023-02-08T01:31:19;33.22;;;13.05;;
65377;SDS011;51982;51.042;13.806;2023-02-08T01:33:45;29.52;;;12.80;;
65377;SDS011;51982;51.042;13.806;2023-02-08T01:36:11;31.15;;;14.88;;
65377;SDS011;51982;51.042;13.806;2023-02-08T01:38:37;34.00;;;13.88;;
65377;SDS011;51982;51.042;13.806;2023-02-08T01:41:04;28.35;;;14.13;;
65377;SDS011;51982;51.042;13.806;2023-02-08T01:43:34;34.72;;;14.32;;
65377;SDS011;51982;51.042;13.806;2023-02-08T01:46:19;29.73;;;14.35;;
65377;SDS011;51982;51.042;13.806;2023-02-08T01:48:44;32.35;;;15.10;;
65377;SDS011;51982;51.042;13.806;2023-02-08T01:51:12;32.22;;;14.65;;
65377;SDS011;51982;51.042;13.806;2023-02-08T01:53:40;31.08;;;15.00;;
65377;SDS011;51982;51.042;13.806;2023-02-08T01:56:08;28.92;;;14.23;;
65377;SDS011;51982;51.042;13.806;2023-02-08T01:58:38;29.90;;;14.48;;
65377;SDS011;51982;51.042;13.806;2023-02-08T02:01:07;36.22;;;15.40;;
65377;SDS011;51982;51.042;13.806;2023-02-08T02:03:34;31.58;;;14.10;;
65377;SDS011;51982;51.042;13.806;2023-02-08T02:06:05;34.55;;;14.18;;
65377;SDS011;51982;51.042;13.806;2023-02-08T02:10:58;24.58;;;12.43;;
65377;SDS011;51982;51.042;13.806;2023-02-08T02:13:24;31.05;;;13.75;;
65377;SDS011;51982;51.042;13.806;2023-02-08T02:15:51;33.25;;;14.27;;
65377;SDS011;51982;51.042;13.806;2023-02-08T02:18:27;27.75;;;13.20;;
65377;SDS011;51982;51.042;13.806;2023-02-08T02:55:31;26.63;;;12.18;;
65377;SDS011;51982;51.042;13.806;2023-02-08T02:58:16;23.50;;;10.88;;
65377;SDS011;51982;51.042;13.806;2023-02-08T03:00:52;25.20;;;12.10;;
65377;SDS011;51982;51.042;13.806;2023-02-08T03:03:19;26.88;;;12.13;;
65377;SDS011;51982;51.042;13.806;2023-02-08T03:06:00;25.63;;;12.20;;
65377;SDS011;51982;51.042;13.806;2023-02-08T03:08:43;23.70;;;11.10;;
65377;SDS011;51982;51.042;13.806;2023-02-08T03:11:31;27.23;;;11.30;;
65377;SDS011;51982;51.042;13.806;2023-02-08T03:14:22;29.50;;;12.43;;
65377;SDS011;51982;51.042;13.806;2023-02-08T03:17:17;25.25;;;11.57;;
65377;SDS011;51982;51.042;13.806;2023-02-08T03:22:39;23.70;;;10.75;;
65377;SDS011;51982;51.042;13.806;2023-02-08T03:30:27;22.60;;;10.20;;
65377;SDS011;51982;51.042;13.806;2023-02-08T03:32:59;30.95;;;11.70;;
65377;SDS011;51982;51.042;13.806;2023-02-08T03:35:33;29.52;;;12.68;;
65377;SDS011;51982;51.042;13.806;2023-02-08T03:38:14;25.42;;;11.45;;
65377;SDS011;51982;51.042;13.806;2023-02-08T03:40:45;25.65;;;12.40;;
65377;SDS011;51982;51.042;13.806;2023-02-08T03:43:16;28.30;;;12.27;;
65377;SDS011;51982;51.042;13.806;2023-02-08T03:45:49;25.48;;;12.57;;
65377;SDS011;51982;51.042;13.806;2023-02-08T03:48:18;28.05;;;13.00;;
65377;SDS011;51982;51.042;13.806;2023-02-08T03:50:47;24.13;;;12.45;;
65377;SDS011;51982;51.042;13.806;2023-02-08T03:53:16;25.67;;;12.45;;
65377;SDS011;51982;51.042;13.806;2023-02-08T03:55:45;26.77;;;12.05;;
65377;SDS011;51982;51.042;13.806;2023-02-08T03:58:21;27.40;;;12.00;;
65377;SDS011;51982;51.042;13.806;2023-02-08T04:00:51;29.90;;;12.00;;
65377;SDS011;51982;51.042;13.806;2023-02-08T04:03:23;32.78;;;12.75;;
65377;SDS011;51982;51.042;13.806;2023-02-08T04:05:51;32.35;;;11.98;;
65377;SDS011;51982;51.042;13.806;2023-02-08T04:08:16;26.35;;;12.55;;
65377;SDS011;51982;51.042;13.806;2023-02-08T04:10:42;24.55;;;11.68;;
65377;SDS011;51982;51.042;13.806;2023-02-08T04:13:07;30.42;;;13.25;;
65377;SDS011;51982;51.042;13.806;2023-02-08T04:15:33;31.90;;;13.45;;
65377;SDS011;51982;51.042;13.806;2023-02-08T04:17:58;27.90;;;12.13;;
65377;SDS011;51982;51.042;13.806;2023-02-08T04:20:23;26.50;;;11.98;;
65377;SDS011;51982;51.042;13.806;2023-02-08T04:22:48;31.45;;;12.23;;
65377;SDS011;51982;51.042;13.806;2023-02-08T04:25:14;28.40;;;13.32;;
65377;SDS011;51982;51.042;13.806;2023-02-08T04:27:39;28.98;;;13.20;;
65377;SDS011;51982;51.042;13.806;2023-02-08T04:30:05;30.45;;;13.02;;
65377;SDS011;51982;51.042;13.806;2023-02-08T04:32:30;29.13;;;12.77;;
65377;SDS011;51982;51.042;13.806;2023-02-08T04:34:56;28.95;;;13.25;;
65377;SDS011;51982;51.042;13.806;2023-02-08T04:37:21;27.98;;;12.63;;
65377;SDS011;51982;51.042;13.806;2023-02-08T04:39:46;29.60;;;13.23;;
65377;SDS011;51982;51.042;13.806;2023-02-08T04:42:21;26.40;;;12.32;;
65377;SDS011;51982;51.042;13.806;2023-02-08T04:44:46;29.75;;;12.20;;
65377;SDS011;51982;51.042;13.806;2023-02-08T04:47:12;28.65;;;12.23;;
65377;SDS011;51982;51.042;13.806;2023-02-08T04:49:37;26.83;;;12.18;;
65377;SDS011;51982;51.042;13.806;2023-02-08T04:52:02;32.78;;;12.93;;
65377;SDS011;51982;51.042;13.806;2023-02-08T04:54:28;26.77;;;12.68;;
65377;SDS011;51982;51.042;13.806;2023-02-08T04:56:53;29.85;;;12.45;;
65377;SDS011;51982;51.042;13.806;2023-02-08T04:59:19;26.67;;;11.73;;
65377;SDS011;51982;51.042;13.806;2023-02-08T05:01:44;31.30;;;12.95;;
65377;SDS011;51982;51.042;13.806;2023-02-08T05:04:09;24.05;;;11.75;;
65377;SDS011;51982;51.042;13.806;2023-02-08T05:06:35;24.63;;;10.73;;
65377;SDS011;51982;51.042;13.806;2023-02-08T05:09:00;29.10;;;11.13;;
65377;SDS011;51982;51.042;13.806;2023-02-08T05:11:25;27.80;;;11.68;;
65377;SDS011;51982;51.042;13.806;2023-02-08T05:13:51;22.17;;;10.52;;
65377;SDS011;51982;51.042;13.806;2023-02-08T05:16:16;29.63;;;12.55;;
65377;SDS011;51982;51.042;13.806;2023-02-08T05:18:42;24.73;;;11.48;;
65377;SDS011;51982;51.042;13.806;2023-02-08T05:21:08;29.50;;;13.57;;
65377;SDS011;51982;51.042;13.806;2023-02-08T05:23:34;26.63;;;11.13;;
65377;SDS011;51982;51.042;13.806;2023-02-08T05:26:03;24.00;;;11.45;;
65377;SDS011;51982;51.042;13.806;2023-02-08T05:28:30;24.48;;;12.75;;
65377;SDS011;51982;51.042;13.806;2023-02-08T05:30:55;30.65;;;13.52;;
65377;SDS011;51982;51.042;13.806;2023-02-08T05:33:20;32.92;;;13.18;;
65377;SDS011;51982;51.042;13.806;2023-02-08T05:35:45;32.00;;;13.45;;
65377;SDS011;51982;51.042;13.806;2023-02-08T05:38:10;30.23;;;13.10;;
65377;SDS011;51982;51.042;13.806;2023-02-08T05:40:36;29.25;;;12.68;;
65377;SDS011;51982;51.042;13.806;2023-02-08T05:43:01;30.60;;;12.48;;
65377;SDS011;51982;51.042;13.806;2023-02-08T05:45:26;23.25;;;10.80;;
65377;SDS011;51982;51.042;13.806;2023-02-08T05:47:52;26.13;;;12.38;;
65377;SDS011;51982;51.042;13.806;2023-02-08T05:50:17;29.80;;;13.38;;
65377;SDS011;51982;51.042;13.806;2023-02-08T05:52:42;32.38;;;12.95;;
65377;SDS011;51982;51.042;13.806;2023-02-08T05:55:07;33.30;;;13.82;;
65377;SDS011;51982;51.042;13.806;2023-02-08T05:57:33;29.52;;;13.27;;
65377;SDS011;51982;51.042;13.806;2023-02-08T05:59:58;34.30;;;14.32;;
65377;SDS011;51982;51.042;13.806;2023-02-08T06:02:23;32.55;;;13.10;;
65377;SDS011;51982;51.042;13.806;2023-02-08T06:04:49;34.38;;;13.25;;
65377;SDS011;51982;51.042;13.806;2023-02-08T06:07:14;35.60;;;13.88;;
65377;SDS011;51982;51.042;13.806;2023-02-08T06:09:39;28.15;;;11.23;;
65377;SDS011;51982;51.042;13.806;2023-02-08T06:12:05;29.60;;;13.00;;
65377;SDS011;51982;51.042;13.806;2023-02-08T06:14:31;33.47;;;12.80;;
65377;SDS011;51982;51.042;13.806;2023-02-08T06:16:56;30.25;;;13.20;;
65377;SDS011;51982;51.042;13.806;2023-02-08T06:19:21;34.53;;;12.55;;
65377;SDS011;51982;51.042;13.806;2023-02-08T06:21:47;30.77;;;13.10;;
65377;SDS011;51982;51.042;13.806;2023-02-08T06:24:12;32.78;;;13.05;;
65377;SDS011;51982;51.042;13.806;2023-02-08T06:26:37;26.88;;;12.63;;
65377;SDS011;51982;51.042;13.806;2023-02-08T06:29:03;29.25;;;13.02;;
65377;SDS011;51982;51.042;13.806;2023-02-08T06:31:28;26.67;;;12.00;;
65377;SDS011;51982;51.042;13.806;2023-02-08T06:33:53;31.98;;;13.13;;
65377;SDS011;51982;51.042;13.806;2023-02-08T06:36:18;31.85;;;13.98;;
65377;SDS011;51982;51.042;13.806;2023-02-08T06:38:44;31.48;;;12.85;;
65377;SDS011;51982;51.042;13.806;2023-02-08T06:41:09;30.92;;;14.15;;
65377;SDS011;51982;51.042;13.806;2023-02-08T06:43:34;40.72;;;13.80;;
65377;SDS011;51982;51.042;13.806;2023-02-08T06:45:59;35.28;;;14.32;;
65377;SDS011;51982;51.042;13.806;2023-02-08T06:48:28;32.10;;;13.50;;
65377;SDS011;51982;51.042;13.806;2023-02-08T06:50:53;41.28;;;14.50;;
65377;SDS011;51982;51.042;13.806;2023-02-08T06:53:19;32.38;;;14.27;;
65377;SDS011;51982;51.042;13.806;2023-02-08T06:55:48;34.25;;;14.43;;
65377;SDS011;51982;51.042;13.806;2023-02-08T06:58:14;33.95;;;14.60;;
65377;SDS011;51982;51.042;13.806;2023-02-08T07:00:39;37.38;;;16.13;;
65377;SDS011;51982;51.042;13.806;2023-02-08T07:03:05;42.15;;;16.20;;
65377;SDS011;51982;51.042;13.806;2023-02-08T07:05:33;40.55;;;13.65;;
65377;SDS011;51982;51.042;13.806;2023-02-08T07:07:59;32.45;;;13.98;;
65377;SDS011;51982;51.042;13.806;2023-02-08T07:10:24;32.10;;;13.98;;
65377;SDS011;51982;51.042;13.806;2023-02-08T07:12:49;29.50;;;13.27;;
65377;SDS011;51982;51.042;13.806;2023-02-08T07:15:15;31.17;;;13.32;;
65377;SDS011;51982;51.042;13.806;2023-02-08T07:17:40;32.03;;;14.40;;
65377;SDS011;51982;51.042;13.806;2023-02-08T07:20:06;38.45;;;15.15;;
65377;SDS011;51982;51.042;13.806;2023-02-08T07:22:32;33.55;;;13.90;;
65377;SDS011;51982;51.042;13.806;2023-02-08T07:24:57;33.33;;;14.77;;
65377;SDS011;51982;51.042;13.806;2023-02-08T07:27:22;36.00;;;14.90;;
65377;SDS011;51982;51.042;13.806;2023-02-08T07:29:47;31.52;;;13.38;;
65377;SDS011;51982;51.042;13.806;2023-02-08T07:32:12;30.48;;;13.88;;
65377;SDS011;51982;51.042;13.806;2023-02-08T07:34:40;37.80;;;15.20;;
65377;SDS011;51982;51.042;13.806;2023-02-08T07:37:06;33.55;;;15.20;;
65377;SDS011;51982;51.042;13.806;2023-02-08T07:39:32;32.40;;;12.80;;
65377;SDS011;51982;51.042;13.806;2023-02-08T07:41:57;30.83;;;14.07;;
65377;SDS011;51982;51.042;13.806;2023-02-08T07:44:23;33.17;;;14.70;;
65377;SDS011;51982;51.042;13.806;2023-02-08T07:46:48;34.90;;;14.85;;
65377;SDS011;51982;51.042;13.806;2023-02-08T07:49:14;29.98;;;13.07;;
65377;SDS011;51982;51.042;13.806;2023-02-08T07:51:39;30.40;;;14.07;;
65377;SDS011;51982;51.042;13.806;2023-02-08T07:54:04;40.85;;;15.10;;
65377;SDS011;51982;51.042;13.806;2023-02-08T07:56:29;43.22;;;15.57;;
65377;SDS011;51982;51.042;13.806;2023-02-08T07:58:55;30.10;;;14.55;;
65377;SDS011;51982;51.042;13.806;2023-02-08T08:01:20;33.72;;;14.05;;
65377;SDS011;51982;51.042;13.806;2023-02-08T08:03:45;29.35;;;12.02;;
65377;SDS011;51982;51.042;13.806;2023-02-08T08:06:11;32.95;;;12.65;;
65377;SDS011;51982;51.042;13.806;2023-02-08T08:08:36;23.88;;;8.70;;
65377;SDS011;51982;51.042;13.806;2023-02-08T08:11:01;33.78;;;13.57;;
65377;SDS011;51982;51.042;13.806;2023-02-08T08:13:26;29.85;;;12.00;;
65377;SDS011;51982;51.042;13.806;2023-02-08T08:15:52;33.30;;;12.85;;
65377;SDS011;51982;51.042;13.806;2023-02-08T08:18:17;34.08;;;13.30;;
65377;SDS011;51982;51.042;13.806;2023-02-08T08:20:42;29.58;;;12.98;;
65377;SDS011;51982;51.042;13.806;2023-02-08T08:23:07;22.98;;;9.80;;
65377;SDS011;51982;51.042;13.806;2023-02-08T08:25:33;33.03;;;14.73;;
65377;SDS011;51982;51.042;13.806;2023-02-08T08:27:59;31.02;;;11.93;;
65377;SDS011;51982;51.042;13.806;2023-02-08T08:30:25;30.58;;;13.25;;
65377;SDS011;51982;51.042;13.806;2023-02-08T08:32:50;33.95;;;13.07;;
65377;SDS011;51982;51.042;13.806;2023-02-08T08:35:16;28.83;;;13.02;;
65377;SDS011;51982;51.042;13.806;2023-02-08T08:37:41;26.95;;;11.40;;
65377;SDS011;51982;51.042;13.806;2023-02-08T08:40:07;33.15;;;13.43;;
65377;SDS011;51982;51.042;13.806;2023-02-08T08:42:33;28.42;;;12.07;;
65377;SDS011;51982;51.042;13.806;2023-02-08T08:44:58;21.38;;;10.60;;
65377;SDS011;51982;51.042;13.806;2023-02-08T08:47:24;19.23;;;8.65;;
65377;SDS011;51982;51.042;13.806;2023-02-08T08:49:49;16.13;;;7.35;;
65377;SDS011;51982;51.042;13.806;2023-02-08T08:52:14;14.93;;;6.63;;
65377;SDS011;51982;51.042;13.806;2023-02-08T08:54:40;30.55;;;12.77;;
65377;SDS011;51982;51.042;13.806;2023-02-08T08:57:05;28.90;;;12.45;;
65377;SDS011;51982;51.042;13.806;2023-02-08T08:59:30;13.05;;;6.82;;
65377;SDS011;51982;51.042;13.806;2023-02-08T09:01:56;24.40;;;11.32;;
65377;SDS011;51982;51.042;13.806;2023-02-08T09:04:21;26.52;;;11.02;;
65377;SDS011;51982;51.042;13.806;2023-02-08T09:06:47;25.77;;;12.18;;
65377;SDS011;51982;51.042;13.806;2023-02-08T09:09:16;23.33;;;10.93;;
65377;SDS011;51982;51.042;13.806;2023-02-08T09:11:42;27.95;;;11.65;;
65377;SDS011;51982;51.042;13.806;2023-02-08T09:14:08;14.52;;;6.72;;
65377;SDS011;51982;51.042;13.806;2023-02-08T09:16:33;27.42;;;12.38;;
65377;SDS011;51982;51.042;13.806;2023-02-08T09:18:59;34.05;;;12.05;;
65377;SDS011;51982;51.042;13.806;2023-02-08T09:21:29;18.40;;;9.13;;
65377;SDS011;51982;51.042;13.806;2023-02-08T09:23:55;33.75;;;10.13;;
65377;SDS011;51982;51.042;13.806;2023-02-08T09:26:21;27.42;;;12.05;;
65377;SDS011;51982;51.042;13.806;2023-02-08T09:28:46;22.45;;;8.57;;
65377;SDS011;51982;51.042;13.806;2023-02-08T09:31:14;19.55;;;8.93;;
65377;SDS011;51982;51.042;13.806;2023-02-08T09:33:43;27.35;;;9.93;;
65377;SDS011;51982;51.042;13.806;2023-02-08T09:36:09;20.25;;;8.27;;
65377;SDS011;51982;51.042;13.806;2023-02-08T09:38:34;23.77;;;9.85;;
65377;SDS011;51982;51.042;13.806;2023-02-08T09:43:51;25.33;;;10.07;;
65377;SDS011;51982;51.042;13.806;2023-02-08T09:46:24;22.02;;;10.00;;
65377;SDS011;51982;51.042;13.806;2023-02-08T09:48:52;26.45;;;9.57;;
65377;SDS011;51982;51.042;13.806;2023-02-08T09:51:28;17.50;;;7.90;;
65377;SDS011;51982;51.042;13.806;2023-02-08T09:54:06;12.60;;;6.97;;
65377;SDS011;51982;51.042;13.806;2023-02-08T09:56:39;16.77;;;7.80;;
65377;SDS011;51982;51.042;13.806;2023-02-08T09:59:11;20.52;;;9.10;;
65377;SDS011;51982;51.042;13.806;2023-02-08T10:01:40;12.48;;;6.00;;
65377;SDS011;51982;51.042;13.806;2023-02-08T10:04:22;23.02;;;9.00;;
65377;SDS011;51982;51.042;13.806;2023-02-08T10:06:49;28.40;;;10.50;;
65377;SDS011;51982;51.042;13.806;2023-02-08T10:09:15;12.88;;;7.13;;
65377;SDS011;51982;51.042;13.806;2023-02-08T10:14:39;24.70;;;9.85;;
65377;SDS011;51982;51.042;13.806;2023-02-08T10:20:06;20.17;;;9.10;;
65377;SDS011;51982;51.042;13.806;2023-02-08T10:25:38;24.80;;;11.48;;
65377;SDS011;51982;51.042;13.806;2023-02-08T10:33:16;18.88;;;8.07;;
65377;SDS011;51982;51.042;13.806;2023-02-08T10:35:47;18.42;;;8.50;;
65377;SDS011;51982;51.042;13.806;2023-02-08T10:40:45;17.85;;;8.57;;
65377;SDS011;51982;51.042;13.806;2023-02-08T10:43:28;13.52;;;7.00;;
65377;SDS011;51982;51.042;13.806;2023-02-08T10:48:58;22.75;;;9.95;;
65377;SDS011;51982;51.042;13.806;2023-02-08T10:51:29;19.08;;;9.60;;
65377;SDS011;51982;51.042;13.806;2023-02-08T10:53:55;23.13;;;10.50;;
65377;SDS011;51982;51.042;13.806;2023-02-08T10:59:20;20.83;;;8.82;;
65377;SDS011;51982;51.042;13.806;2023-02-08T11:01:49;18.38;;;7.10;;
65377;SDS011;51982;51.042;13.806;2023-02-08T11:04:16;26.10;;;9.00;;
65377;SDS011;51982;51.042;13.806;2023-02-08T11:06:43;19.13;;;7.40;;
65377;SDS011;51982;51.042;13.806;2023-02-08T11:09:20;23.15;;;10.35;;
65377;SDS011;51982;51.042;13.806;2023-02-08T11:11:48;21.77;;;10.15;;
65377;SDS011;51982;51.042;13.806;2023-02-08T11:14:17;20.40;;;9.30;;
65377;SDS011;51982;51.042;13.806;2023-02-08T11:16:50;23.08;;;9.55;;
65377;SDS011;51982;51.042;13.806;2023-02-08T11:19:20;24.15;;;10.52;;
65377;SDS011;51982;51.042;13.806;2023-02-08T11:21:49;20.92;;;9.05;;
65377;SDS011;51982;51.042;13.806;2023-02-08T11:26:50;9.13;;;3.55;;
65377;SDS011;51982;51.042;13.806;2023-02-08T11:29:18;17.38;;;8.05;;
65377;SDS011;51982;51.042;13.806;2023-02-08T11:31:55;19.33;;;9.50;;
65377;SDS011;51982;51.042;13.806;2023-02-08T11:34:44;22.30;;;8.63;;
65377;SDS011;51982;51.042;13.806;2023-02-08T11:37:18;20.65;;;8.75;;
65377;SDS011;51982;51.042;13.806;2023-02-08T11:42:23;20.02;;;9.38;;
65377;SDS011;51982;51.042;13.806;2023-02-08T11:44:51;19.40;;;8.23;;
65377;SDS011;51982;51.042;13.806;2023-02-08T11:47:22;20.67;;;9.10;;
65377;SDS011;51982;51.042;13.806;2023-02-08T11:49:51;23.30;;;9.07;;
65377;SDS011;51982;51.042;13.806;2023-02-08T11:52:26;18.48;;;7.97;;
65377;SDS011;51982;51.042;13.806;2023-02-08T11:55:13;18.30;;;8.18;;
65377;SDS011;51982;51.042;13.806;2023-02-08T11:57:59;19.48;;;9.00;;
65377;SDS011;51982;51.042;13.806;2023-02-08T12:00:28;17.27;;;6.18;;
65377;SDS011;51982;51.042;13.806;2023-02-08T12:03:13;23.67;;;8.57;;
65377;SDS011;51982;51.042;13.806;2023-02-08T12:05:46;21.48;;;9.10;;
65377;SDS011;51982;51.042;13.806;2023-02-08T12:18:42;25.25;;;10.65;;
65377;SDS011;51982;51.042;13.806;2023-02-08T12:21:19;14.15;;;6.65;;
65377;SDS011;51982;51.042;13.806;2023-02-08T12:32:01;16.27;;;7.03;;
65377;SDS011;51982;51.042;13.806;2023-02-08T12:37:53;10.35;;;6.15;;
65377;SDS011;51982;51.042;13.806;2023-02-08T12:46:10;14.30;;;5.90;;
65377;SDS011;51982;51.042;13.806;2023-02-08T12:51:50;16.88;;;7.28;;
65377;SDS011;51982;51.042;13.806;2023-02-08T12:54:33;12.77;;;5.45;;
65377;SDS011;51982;51.042;13.806;2023-02-08T12:57:04;11.25;;;5.47;;
65377;SDS011;51982;51.042;13.806;2023-02-08T12:59:33;16.98;;;7.03;;
65377;SDS011;51982;51.042;13.806;2023-02-08T13:02:08;10.45;;;4.15;;
65377;SDS011;51982;51.042;13.806;2023-02-08T13:04:41;10.60;;;4.25;;
65377;SDS011;51982;51.042;13.806;2023-02-08T13:07:12;14.07;;;6.10;;
65377;SDS011;51982;51.042;13.806;2023-02-08T13:09:44;7.65;;;4.13;;
65377;SDS011;51982;51.042;13.806;2023-02-08T13:14:50;11.20;;;4.65;;
65377;SDS011;51982;51.042;13.806;2023-02-08T13:17:37;15.38;;;6.78;;
65377;SDS011;51982;51.042;13.806;2023-02-08T13:20:18;16.77;;;5.40;;
65377;SDS011;51982;51.042;13.806;2023-02-08T13:22:53;10.15;;;5.88;;
65377;SDS011;51982;51.042;13.806;2023-02-08T13:25:23;13.98;;;6.38;;
65377;SDS011;51982;51.042;13.806;2023-02-08T13:28:00;15.35;;;7.28;;
65377;SDS011;51982;51.042;13.806;2023-02-08T13:30:28;14.98;;;6.25;;
65377;SDS011;51982;51.042;13.806;2023-02-08T13:32:55;16.83;;;7.53;;
65377;SDS011;51982;51.042;13.806;2023-02-08T13:35:23;16.08;;;7.28;;
65377;SDS011;51982;51.042;13.806;2023-02-08T13:38:02;12.35;;;5.75;;
65377;SDS011;51982;51.042;13.806;2023-02-08T13:40:30;17.38;;;8.60;;
65377;SDS011;51982;51.042;13.806;2023-02-08T13:43:00;17.80;;;6.90;;
65377;SDS011;51982;51.042;13.806;2023-02-08T13:45:34;18.58;;;7.82;;
65377;SDS011;51982;51.042;13.806;2023-02-08T13:48:04;17.33;;;7.57;;
65377;SDS011;51982;51.042;13.806;2023-02-08T13:53:05;14.30;;;5.72;;
65377;SDS011;51982;51.042;13.806;2023-02-08T14:03:23;14.50;;;6.65;;
65377;SDS011;51982;51.042;13.806;2023-02-08T14:06:02;17.15;;;8.30;;
65377;SDS011;51982;51.042;13.806;2023-02-08T14:13:40;15.52;;;7.25;;
65377;SDS011;51982;51.042;13.806;2023-02-08T14:21:42;12.55;;;6.47;;
65377;SDS011;51982;51.042;13.806;2023-02-08T14:24:29;13.70;;;5.15;;
65377;SDS011;51982;51.042;13.806;2023-02-08T14:27:05;12.07;;;5.50;;
65377;SDS011;51982;51.042;13.806;2023-02-08T14:29:33;14.50;;;6.60;;
65377;SDS011;51982;51.042;13.806;2023-02-08T14:31:59;12.68;;;5.90;;
65377;SDS011;51982;51.042;13.806;2023-02-08T14:34:29;13.63;;;5.90;;
65377;SDS011;51982;51.042;13.806;2023-02-08T14:37:43;15.00;;;6.55;;
65377;SDS011;51982;51.042;13.806;2023-02-08T14:39:42;12.00;;;6.35;;
65377;SDS011;51982;51.042;13.806;2023-02-08T14:42:11;11.45;;;6.38;;
65377;SDS011;51982;51.042;13.806;2023-02-08T14:47:03;17.33;;;7.00;;
65377;SDS011;51982;51.042;13.806;2023-02-08T14:49:36;14.68;;;7.07;;
65377;SDS011;51982;51.042;13.806;2023-02-08T14:52:08;18.65;;;7.40;;
65377;SDS011;51982;51.042;13.806;2023-02-08T14:54:40;14.73;;;6.55;;
65377;SDS011;51982;51.042;13.806;2023-02-08T14:57:17;17.35;;;7.95;;
65377;SDS011;51982;51.042;13.806;2023-02-08T14:59:47;16.70;;;7.57;;
65377;SDS011;51982;51.042;13.806;2023-02-08T15:02:18;16.58;;;7.70;;
65377;SDS011;51982;51.042;13.806;2023-02-08T15:04:45;17.85;;;8.10;;
65377;SDS011;51982;51.042;13.806;2023-02-08T15:07:28;12.68;;;6.20;;
65377;SDS011;51982;51.042;13.806;2023-02-08T15:10:13;11.32;;;5.63;;
65377;SDS011;51982;51.042;13.806;2023-02-08T15:12:42;16.88;;;7.97;;
65377;SDS011;51982;51.042;13.806;2023-02-08T15:17:58;15.32;;;7.43;;
65377;SDS011;51982;51.042;13.806;2023-02-08T15:20:25;15.45;;;7.60;;
65377;SDS011;51982;51.042;13.806;2023-02-08T15:23:14;19.17;;;8.20;;
65377;SDS011;51982;51.042;13.806;2023-02-08T15:25:43;17.77;;;7.50;;
65377;SDS011;51982;51.042;13.806;2023-02-08T15:28:19;15.15;;;6.63;;
65377;SDS011;51982;51.042;13.806;2023-02-08T15:31:20;15.98;;;7.10;;
65377;SDS011;51982;51.042;13.806;2023-02-08T15:33:39;14.13;;;6.40;;
65377;SDS011;51982;51.042;13.806;2023-02-08T15:36:15;17.60;;;7.30;;
65377;SDS011;51982;51.042;13.806;2023-02-08T15:38:45;14.68;;;7.28;;
65377;SDS011;51982;51.042;13.806;2023-02-08T15:41:11;14.32;;;6.65;;
65377;SDS011;51982;51.042;13.806;2023-02-08T15:43:39;18.00;;;7.18;;
65377;SDS011;51982;51.042;13.806;2023-02-08T15:46:16;11.32;;;5.25;;
65377;SDS011;51982;51.042;13.806;2023-02-08T15:48:44;15.38;;;7.30;;
65377;SDS011;51982;51.042;13.806;2023-02-08T15:51:11;15.38;;;7.57;;
65377;SDS011;51982;51.042;13.806;2023-02-08T15:53:39;15.75;;;6.80;;
65377;SDS011;51982;51.042;13.806;2023-02-08T15:56:07;18.17;;;7.15;;
65377;SDS011;51982;51.042;13.806;2023-02-08T15:58:37;16.40;;;7.13;;
65377;SDS011;51982;51.042;13.806;2023-02-08T16:01:06;19.35;;;7.35;;
65377;SDS011;51982;51.042;13.806;2023-02-08T16:03:32;15.60;;;7.13;;
65377;SDS011;51982;51.042;13.806;2023-02-08T16:06:01;16.25;;;7.65;;
65377;SDS011;51982;51.042;13.806;2023-02-08T16:08:29;21.58;;;9.45;;
65377;SDS011;51982;51.042;13.806;2023-02-08T16:10:58;20.83;;;9.05;;
65377;SDS011;51982;51.042;13.806;2023-02-08T16:13:35;18.05;;;8.48;;
65377;SDS011;51982;51.042;13.806;2023-02-08T16:19:00;12.75;;;7.05;;
65377;SDS011;51982;51.042;13.806;2023-02-08T16:21:42;17.67;;;7.40;;
65377;SDS011;51982;51.042;13.806;2023-02-08T16:26:56;19.70;;;7.70;;
65377;SDS011;51982;51.042;13.806;2023-02-08T16:29:26;18.33;;;7.22;;
65377;SDS011;51982;51.042;13.806;2023-02-08T16:34:31;17.38;;;6.63;;
65377;SDS011;51982;51.042;13.806;2023-02-08T16:36:59;16.25;;;7.43;;
65377;SDS011;51982;51.042;13.806;2023-02-08T16:39:36;19.45;;;7.68;;
65377;SDS011;51982;51.042;13.806;2023-02-08T16:42:23;17.50;;;7.80;;
65377;SDS011;51982;51.042;13.806;2023-02-08T16:47:40;14.32;;;6.80;;
65377;SDS011;51982;51.042;13.806;2023-02-08T16:50:15;17.88;;;7.82;;